Time;durP1;ratioP1;P1;durP2;ratioP2;P2;SDS_P1;SDS_P2;PMS_P1;PMS_P2;Temp;Humidity;BMP_temperature;BMP_pressure;BME280_temperature;BME280_humidity;BME280_pressure;Samples;Min_cycle;Max_cycle;Signal;HPM_P1;HPM_P2
2022/11/02 00:01:30;;;;;;;8.98;4.57;;;;;;;3.44;67.56;98889.22;5047639;28;20072;-71
2022/11/02 00:03:56;;;;;;;10.18;4.53;;;;;;;3.52;67.20;98894.25;5014934;28;20123;-71
2022/11/02 00:06:21;;;;;;;7.93;4.20;;;;;;;3.55;67.23;98899.88;5014588;28;20076;-72
2022/11/02 00:08:47;;;;;;;7.47;4.20;;;;;;;3.42;67.23;98895.47;5050061;28;20044;-71
2022/11/02 00:11:13;;;;;;;7.97;4.15;;;;;;;3.42;67.27;98892.84;5034359;28;20116;-72
2022/11/02 00:13:38;;;;;;;7.85;4.25;;;;;;;3.44;67.31;98889.22;5034165;28;20102;-71
2022/11/02 00:16:06;;;;;;;7.00;3.97;;;;;;;3.45;67.30;98896.88;5052095;28;20048;-72
2022/11/02 00:18:33;;;;;;;7.15;4.50;;;;;;;3.45;67.41;98888.22;5050923;28;20048;-71
2022/11/02 00:21:00;;;;;;;6.10;4.13;;;;;;;3.46;67.29;98882.75;5034424;28;20045;-72
2022/11/02 00:23:26;;;;;;;8.23;4.72;;;;;;;3.46;66.75;98887.22;5064050;28;20071;-72
2022/11/02 00:25:52;;;;;;;8.45;4.60;;;;;;;3.44;66.80;98869.06;5054198;28;20478;-71
2022/11/02 00:28:18;;;;;;;8.15;4.53;;;;;;;3.55;67.08;98876.28;5037485;28;20040;-73
2022/11/02 00:30:44;;;;;;;10.55;5.53;;;;;;;3.53;65.87;98873.09;5037367;28;20054;-71
2022/11/02 00:33:10;;;;;;;6.20;3.67;;;;;;;3.50;66.60;98865.66;5029584;28;20041;-72
2022/11/02 00:35:36;;;;;;;6.55;3.92;;;;;;;3.46;66.56;98869.66;5031858;28;20049;-71
2022/11/02 00:38:03;;;;;;;4.85;3.85;;;;;;;3.44;66.70;98860.38;5023947;28;20056;-71
2022/11/02 00:40:28;;;;;;;8.23;4.00;;;;;;;3.43;66.90;98864.84;5033954;28;20091;-71
2022/11/02 00:42:54;;;;;;;9.45;4.03;;;;;;;3.38;66.91;98862.84;5033761;28;20072;-71
2022/11/02 00:45:21;;;;;;;7.25;4.10;;;;;;;3.23;67.55;98866.66;5017469;28;20421;-71
2022/11/02 00:47:48;;;;;;;6.13;4.03;;;;;;;3.20;68.16;98862.63;5033586;28;20140;-72
2022/11/02 00:50:14;;;;;;;7.97;4.30;;;;;;;3.26;67.38;98871.50;5033650;28;20393;-72
2022/11/02 00:52:41;;;;;;;5.85;3.90;;;;;;;3.15;67.94;98875.53;5033621;28;20045;-72
2022/11/02 00:55:09;;;;;;;8.55;4.15;;;;;;;3.25;68.39;98867.28;5050064;28;20037;-72
2022/11/02 00:57:36;;;;;;;7.35;4.22;;;;;;;3.32;67.62;98874.09;5000997;28;20086;-71
2022/11/02 01:00:03;;;;;;;12.68;4.72;;;;;;;3.38;66.77;98865.47;5033525;28;20124;-71
2022/11/02 01:02:31;;;;;;;8.85;3.92;;;;;;;3.45;67.18;98870.69;5030088;28;20514;-71
2022/11/02 01:04:57;;;;;;;8.55;4.10;;;;;;;3.43;66.37;98870.06;5013868;28;20091;-71
2022/11/02 01:07:24;;;;;;;8.05;4.43;;;;;;;3.45;66.75;98870.69;4999219;28;20068;-71
2022/11/02 01:09:50;;;;;;;8.18;4.30;;;;;;;3.49;66.49;98873.69;5049924;28;20044;-71
2022/11/02 01:12:17;;;;;;;6.38;4.50;;;;;;;3.35;67.65;98871.09;5033399;28;20045;-72
2022/11/02 01:14:45;;;;;;;8.40;5.05;;;;;;;3.31;68.01;98872.50;5069493;28;20082;-71
2022/11/02 01:17:13;;;;;;;;;;;;;;;3.34;67.91;98871.28;5037526;28;20044;-70
2022/11/02 01:19:40;;;;;;;10.45;3.95;;;;;;;3.38;67.89;98869.88;5020464;28;19926;-71
2022/11/02 01:22:06;;;;;;;9.77;4.00;;;;;;;3.34;67.73;98866.84;5053310;28;20396;-71
2022/11/02 01:24:34;;;;;;;9.90;4.82;;;;;;;3.34;67.41;98864.25;5020556;28;20051;-71
2022/11/02 01:27:02;;;;;;;7.05;4.03;;;;;;;3.41;67.32;98861.59;5053499;28;20043;-72
2022/11/02 01:29:27;;;;;;;9.68;4.32;;;;;;;3.47;66.96;98865.22;5003463;28;20044;-71
2022/11/02 01:31:53;;;;;;;8.73;4.38;;;;;;;3.49;66.77;98863.22;5035966;28;20394;-71
2022/11/02 01:34:20;;;;;;;7.95;3.85;;;;;;;3.47;67.06;98859.97;5036502;28;20071;-71
2022/11/02 01:36:46;;;;;;;7.15;4.25;;;;;;;3.39;67.26;98871.50;5020264;28;20055;-71
2022/11/02 01:39:13;;;;;;;7.53;4.32;;;;;;;3.36;67.51;98859.59;5013162;28;20137;-72
2022/11/02 01:41:39;;;;;;;8.88;4.68;;;;;;;3.38;67.78;98856.78;4996979;28;20053;-70
2022/11/02 01:44:19;;;;;;;6.68;4.03;;;;;;;3.42;67.37;98855.38;5033909;28;20094;-71
2022/11/02 01:46:45;;;;;;;;;;;;;;;3.47;67.61;98860.81;5057691;28;20059;-71
2022/11/02 01:49:14;;;;;;;7.85;4.20;;;;;;;3.52;67.33;98849.69;5057056;28;19925;-72
2022/11/02 01:51:56;;;;;;;6.18;4.15;;;;;;;3.50;66.87;98857.78;5056982;28;20040;-72
2022/11/02 01:54:29;;;;;;;6.03;3.50;;;;;;;3.54;67.44;98851.13;5024032;28;20052;-71
2022/11/02 01:57:02;;;;;;;7.85;4.07;;;;;;;3.50;67.43;98857.78;5040581;28;20147;-71
2022/11/02 01:59:36;;;;;;;5.95;3.83;;;;;;;3.48;67.50;98849.31;5040321;28;20090;-71
2022/11/02 02:02:04;;;;;;;9.88;4.60;;;;;;;3.50;67.20;98849.09;5040009;28;20048;-71
2022/11/02 02:04:31;;;;;;;7.45;4.18;;;;;;;3.57;67.15;98860.38;5040101;28;20052;-71
2022/11/02 02:06:57;;;;;;;7.40;4.03;;;;;;;3.56;66.36;98862.22;5040162;28;20040;-71
2022/11/02 02:09:23;;;;;;;7.32;4.25;;;;;;;3.54;66.68;98858.19;5041056;28;20131;-71
2022/11/02 02:11:49;;;;;;;11.68;4.30;;;;;;;3.54;67.14;98861.59;5023759;28;20573;-71
2022/11/02 02:14:17;;;;;;;8.15;4.03;;;;;;;3.56;66.74;98858.75;5056611;28;20139;-71
2022/11/02 02:17:03;;;;;;;7.25;4.15;;;;;;;3.57;67.30;98861.19;5023893;28;20040;-71
2022/11/02 02:19:44;;;;;;;8.38;4.18;;;;;;;3.54;67.38;98860.78;5056560;28;20053;-71
2022/11/02 02:22:25;;;;;;;7.40;4.18;;;;;;;3.59;67.51;98861.00;5054926;28;20036;-71
2022/11/02 02:25:01;;;;;;;9.25;4.55;;;;;;;3.50;67.20;98854.34;5074254;28;20047;-72
2022/11/02 02:27:40;;;;;;;11.68;4.78;;;;;;;3.46;67.42;98850.53;5056694;28;20049;-71
2022/11/02 02:30:08;;;;;;;10.20;5.07;;;;;;;3.51;68.06;98853.34;5023106;28;20535;-71
2022/11/02 02:32:56;;;;;;;7.25;4.40;;;;;;;3.46;67.86;98848.69;5056306;28;20044;-71
2022/11/02 02:35:38;;;;;;;11.02;5.60;;;;;;;3.43;67.05;98851.72;5023555;28;20040;-71
2022/11/02 02:38:07;;;;;;;12.02;4.60;;;;;;;3.46;67.56;98847.91;5039551;28;20127;-71
2022/11/02 02:40:42;;;;;;;7.75;4.28;;;;;;;3.42;68.10;98847.50;5040063;28;20056;-71
2022/11/02 02:43:23;;;;;;;9.60;4.60;;;;;;;3.44;67.64;98847.28;5021545;28;20048;-72
2022/11/02 02:46:02;;;;;;;9.48;4.07;;;;;;;3.41;67.61;98848.50;5056379;28;20404;-71
2022/11/02 02:48:28;;;;;;;7.15;4.05;;;;;;;3.47;67.35;98849.50;5002939;28;20048;-72
2022/11/02 02:51:06;;;;;;;7.68;4.00;;;;;;;3.49;67.42;98857.97;5019824;28;20051;-71
2022/11/02 02:53:49;;;;;;;5.65;3.60;;;;;;;3.38;67.61;98856.78;5019375;28;20498;-71
2022/11/02 02:56:20;;;;;;;7.97;4.47;;;;;;;3.46;67.13;98859.19;5019030;28;20053;-70
2022/11/02 02:58:50;;;;;;;9.30;4.57;;;;;;;3.38;67.82;98865.47;5035747;28;20057;-70
2022/11/02 03:01:17;;;;;;;9.88;4.10;;;;;;;3.41;67.96;98861.59;5053548;28;20080;-71
2022/11/02 03:03:43;;;;;;;8.13;3.45;;;;;;;3.41;67.30;98851.94;5035494;28;20045;-71
2022/11/02 03:06:08;;;;;;;7.03;3.83;;;;;;;3.40;67.49;98855.56;5035607;28;20071;-71
2022/11/02 03:08:38;;;;;;;6.60;4.05;;;;;;;3.37;67.60;98857.78;5035442;28;20076;-71
2022/11/02 03:11:16;;;;;;;6.45;4.47;;;;;;;3.40;67.95;98865.25;5035536;28;20045;-71
2022/11/02 03:14:06;;;;;;;6.15;3.53;;;;;;;3.28;68.58;98864.25;5035579;28;20418;-71
2022/11/02 03:16:43;;;;;;;6.63;4.25;;;;;;;3.13;69.50;98864.47;5052253;28;20041;-72
2022/11/02 03:19:23;;;;;;;10.98;4.18;;;;;;;3.12;69.31;98858.41;5036205;28;20184;-71
2022/11/02 03:21:57;;;;;;;10.00;4.35;;;;;;;3.01;69.96;98858.22;5002695;28;20048;-71
2022/11/02 03:24:33;;;;;;;8.73;4.32;;;;;;;3.05;70.13;98867.28;4983289;28;20045;-70
2022/11/02 03:27:08;;;;;;;7.72;4.47;;;;;;;3.14;70.31;98869.47;5015767;28;20421;-72
2022/11/02 03:29:44;;;;;;;10.68;4.45;;;;;;;3.24;69.68;98865.66;5050566;28;20097;-71
2022/11/02 03:32:23;;;;;;;8.20;4.13;;;;;;;3.27;69.24;98854.78;5038383;28;20090;-71
2022/11/02 03:34:54;;;;;;;7.43;4.18;;;;;;;3.21;69.14;98861.63;5022010;28;20063;-70
2022/11/02 03:37:26;;;;;;;7.55;3.90;;;;;;;3.22;69.35;98859.81;5022027;28;20501;-70
2022/11/02 03:40:10;;;;;;;8.77;4.20;;;;;;;3.22;69.21;98865.88;5038185;28;20505;-70
2022/11/02 03:42:39;;;;;;;7.00;4.47;;;;;;;3.20;68.86;98857.38;5049033;28;20518;-70
2022/11/02 03:45:17;;;;;;;7.05;4.38;;;;;;;3.10;69.11;98854.38;5029180;28;20565;-70
2022/11/02 03:47:47;;;;;;;8.52;4.85;;;;;;;2.98;70.02;98851.56;4986056;28;20041;-71
2022/11/02 03:50:16;;;;;;;7.43;4.50;;;;;;;2.97;70.20;98844.69;5018179;28;20421;-71
2022/11/02 03:52:43;;;;;;;11.07;5.23;;;;;;;2.95;70.51;98844.91;5002046;28;20214;-71
2022/11/02 03:55:16;;;;;;;7.43;4.45;;;;;;;3.01;70.30;98839.88;5017859;28;20291;-72
2022/11/02 03:57:45;;;;;;;9.27;5.00;;;;;;;3.06;70.73;98842.69;5018241;28;20041;-71
2022/11/02 04:00:22;;;;;;;;;;;;;;;2.96;71.12;98838.66;5034854;28;20513;-71
2022/11/02 04:02:59;;;;;;;8.23;4.72;;;;;;;2.95;71.67;98837.06;5019361;28;20018;-70
2022/11/02 04:05:32;;;;;;;10.95;5.53;;;;;;;2.87;72.23;98839.06;5034307;28;20040;-70
2022/11/02 04:08:20;;;;;;;10.90;6.25;;;;;;;2.76;72.59;98840.47;5051172;28;20555;-71
2022/11/02 04:16:20;;;;;;;9.90;5.97;;;;;;;2.99;72.88;98853.16;5054086;28;20127;-70
2022/11/02 04:21:31;;;;;;;10.23;5.18;;;;;;;2.66;73.38;98850.53;5037275;28;20044;-70
2022/11/02 04:26:42;;;;;;;9.48;5.43;;;;;;;2.52;74.28;98851.50;5037226;28;20036;-70
2022/11/02 04:29:09;;;;;;;10.07;4.90;;;;;;;2.50;74.15;98846.50;5054089;28;20121;-71
2022/11/02 04:31:35;;;;;;;7.75;4.63;;;;;;;2.49;74.64;98850.09;5037405;28;20048;-70
2022/11/02 04:34:01;;;;;;;8.23;4.10;;;;;;;2.47;74.57;98844.25;5054259;28;20584;-70
2022/11/02 04:36:31;;;;;;;8.50;4.65;;;;;;;2.48;74.34;98845.88;4998622;28;20136;-70
2022/11/02 04:38:57;;;;;;;9.97;4.60;;;;;;;2.41;74.41;98843.25;5030659;28;20507;-71
2022/11/02 04:41:41;;;;;;;9.00;4.85;;;;;;;2.53;74.59;98832.19;5027729;28;20319;-70
2022/11/02 04:44:14;;;;;;;7.68;4.55;;;;;;;2.48;74.74;98840.63;5034142;28;20528;-70
2022/11/02 04:46:43;;;;;;;7.70;4.40;;;;;;;2.39;74.90;98837.41;5033786;28;20045;-69
2022/11/02 04:49:09;;;;;;;8.95;5.45;;;;;;;2.37;75.33;98834.16;5033903;28;20094;-70
2022/11/02 04:51:39;;;;;;;11.43;5.63;;;;;;;2.38;75.58;98829.72;5017360;28;20567;-70
2022/11/02 04:54:05;;;;;;;10.30;6.07;;;;;;;2.60;75.03;98839.03;5050469;28;20045;-71
2022/11/02 04:56:32;;;;;;;8.73;5.07;;;;;;;2.67;73.79;98841.66;5013832;28;20103;-70
2022/11/02 04:58:59;;;;;;;6.38;4.13;;;;;;;2.57;73.06;98843.88;5013896;28;20037;-73
2022/11/02 05:01:28;;;;;;;9.05;4.90;;;;;;;2.57;74.17;98836.81;5010609;28;20127;-72
2022/11/02 05:03:54;;;;;;;12.27;5.35;;;;;;;2.61;74.10;98834.63;4994703;28;20193;-71
2022/11/02 05:06:23;;;;;;;7.80;4.60;;;;;;;2.72;73.90;98826.19;4973890;28;20029;-73
2022/11/02 05:08:49;;;;;;;9.18;4.45;;;;;;;2.78;73.57;98827.19;5033619;28;20118;-72
2022/11/02 05:11:15;;;;;;;8.05;4.93;;;;;;;2.65;73.43;98828.78;5033772;28;20490;-72
2022/11/02 05:13:43;;;;;;;8.57;5.22;;;;;;;2.59;73.94;98826.97;5034539;28;20502;-71
2022/11/02 05:16:12;;;;;;;7.50;4.40;;;;;;;2.67;74.01;98839.03;5033516;28;20076;-70
2022/11/02 05:18:38;;;;;;;8.60;4.63;;;;;;;2.67;73.61;98829.38;5033700;28;20136;-67
2022/11/02 05:21:04;;;;;;;8.13;4.60;;;;;;;2.65;73.81;98834.03;5033105;28;20551;-67
2022/11/02 05:23:30;;;;;;;8.30;4.88;;;;;;;2.67;73.72;98839.03;5016830;28;20056;-68
2022/11/02 05:26:03;;;;;;;7.35;4.53;;;;;;;2.69;73.35;98834.44;5012931;28;20068;-69
2022/11/02 05:28:31;;;;;;;7.25;4.18;;;;;;;2.73;73.32;98836.44;5016439;28;20099;-69
2022/11/02 05:31:02;;;;;;;8.30;4.78;;;;;;;2.78;73.25;98833.22;5016741;28;20035;-67
2022/11/02 05:33:31;;;;;;;9.73;4.90;;;;;;;2.88;73.26;98841.50;5033195;28;20418;-68
2022/11/02 05:35:59;;;;;;;13.45;5.63;;;;;;;2.98;73.04;98842.91;5050195;28;20128;-66
2022/11/02 05:38:26;;;;;;;12.52;6.97;;;;;;;3.02;72.63;98851.97;5016457;28;20055;-64
2022/11/02 05:40:55;;;;;;;10.00;5.60;;;;;;;2.75;73.33;98804.84;5016127;28;20049;-70
2022/11/02 05:43:23;;;;;;;11.15;6.10;;;;;;;2.92;72.77;98847.94;5000205;28;20494;-69
2022/11/02 05:45:57;;;;;;;13.20;5.68;;;;;;;2.73;74.03;98853.94;5050979;28;20107;-64
2022/11/02 05:48:25;;;;;;;11.98;6.30;;;;;;;2.82;73.93;98849.31;5032924;28;20041;-68
2022/11/02 05:50:55;;;;;;;13.30;6.40;;;;;;;2.80;73.45;98849.53;5016660;28;20179;-67
2022/11/02 05:53:22;;;;;;;12.52;6.63;;;;;;;2.77;74.10;98852.56;5032893;28;20128;-68
2022/11/02 05:55:47;;;;;;;9.90;6.15;;;;;;;2.73;73.35;98836.44;5019415;28;20421;-69
2022/11/02 05:58:13;;;;;;;13.77;6.07;;;;;;;2.79;73.15;98841.88;5042203;28;20049;-68
2022/11/02 06:00:39;;;;;;;12.82;6.68;;;;;;;2.78;73.29;98842.91;5032527;28;20048;-69
2022/11/02 06:03:05;;;;;;;11.23;5.93;;;;;;;2.73;73.25;98851.34;5016548;28;20498;-66
2022/11/02 06:05:31;;;;;;;12.52;6.03;;;;;;;2.77;73.49;98846.53;5032857;28;20051;-67
2022/11/02 06:08:01;;;;;;;13.95;6.80;;;;;;;2.84;73.08;98842.09;5032813;28;20081;-68
2022/11/02 06:10:28;;;;;;;12.63;6.67;;;;;;;2.89;72.93;98842.31;5050740;28;20033;-68
2022/11/02 06:12:58;;;;;;;9.52;6.15;;;;;;;2.94;73.29;98843.31;5032651;28;20299;-67
2022/11/02 06:15:24;;;;;;;17.52;6.90;;;;;;;3.02;72.52;98844.09;5031643;28;20050;-66
2022/11/02 06:17:50;;;;;;;13.00;6.38;;;;;;;2.81;73.51;98843.28;4998126;28;20132;-66
2022/11/02 06:20:16;;;;;;;11.30;6.25;;;;;;;2.95;72.33;98846.72;5032162;28;20139;-66
2022/11/02 06:22:43;;;;;;;11.88;6.03;;;;;;;2.91;71.35;98837.66;5015333;28;20057;-68
2022/11/02 06:25:09;;;;;;;13.82;6.45;;;;;;;2.93;72.02;98849.53;5030905;28;20052;-67
2022/11/02 06:27:35;;;;;;;19.48;7.93;;;;;;;3.00;71.89;98848.72;5049100;28;20135;-67
2022/11/02 06:30:03;;;;;;;14.65;8.43;;;;;;;3.04;70.72;98842.09;5014096;28;20047;-69
2022/11/02 06:32:29;;;;;;;19.75;9.93;;;;;;;3.12;70.79;98850.56;5051931;28;20506;-69
2022/11/02 06:34:55;;;;;;;19.50;10.80;;;;;;;3.20;70.53;98849.53;5035378;28;20242;-66
2022/11/02 06:37:21;;;;;;;15.40;7.30;;;;;;;3.19;69.90;98845.31;5032881;28;20047;-68
2022/11/02 06:39:47;;;;;;;11.57;6.82;;;;;;;3.10;69.66;98842.09;5034450;28;20041;-68
2022/11/02 06:42:15;;;;;;;13.38;6.95;;;;;;;3.14;70.04;98838.06;5052220;28;20074;-71
2022/11/02 06:44:41;;;;;;;14.70;6.53;;;;;;;3.19;69.57;98838.25;5017943;28;20041;-67
2022/11/02 06:47:07;;;;;;;10.98;6.00;;;;;;;3.23;69.38;98843.88;5053005;28;20114;-68
2022/11/02 06:49:33;;;;;;;20.00;7.63;;;;;;;3.23;69.75;98832.63;5020370;28;20068;-70
2022/11/02 06:51:59;;;;;;;10.15;6.13;;;;;;;3.44;69.19;98844.66;5035576;28;20046;-71
2022/11/02 06:54:24;;;;;;;8.85;5.28;;;;;;;3.51;68.96;98845.47;5036194;28;20045;-70
2022/11/02 06:56:50;;;;;;;9.45;5.03;;;;;;;3.39;68.76;98845.31;5019234;28;20172;-68
2022/11/02 06:59:16;;;;;;;11.68;4.68;;;;;;;3.27;69.88;98845.13;5036216;28;20098;-68
2022/11/02 07:01:42;;;;;;;7.78;4.30;;;;;;;3.36;69.61;98848.31;5052071;28;20033;-71
2022/11/02 07:04:08;;;;;;;8.02;4.65;;;;;;;3.34;68.80;98850.34;5033730;28;20071;-68
2022/11/02 07:06:34;;;;;;;8.75;4.07;;;;;;;3.39;68.28;98848.72;5033321;28;20079;-67
2022/11/02 07:09:01;;;;;;;9.00;4.38;;;;;;;3.40;68.55;98847.69;5049492;28;20061;-68
2022/11/02 07:11:27;;;;;;;6.78;3.65;;;;;;;3.38;69.05;98847.13;5051763;28;20048;-66
2022/11/02 07:13:53;;;;;;;11.38;4.10;;;;;;;3.48;68.46;98848.50;5017842;28;20398;-70
2022/11/02 07:16:19;;;;;;;9.02;4.72;;;;;;;3.54;67.81;98858.97;5034989;28;20046;-73
2022/11/02 07:18:48;;;;;;;8.32;4.20;;;;;;;3.29;68.07;98861.41;5033299;28;20090;-65
2022/11/02 07:21:14;;;;;;;8.23;4.10;;;;;;;3.28;68.83;98865.03;5050785;28;20051;-69
2022/11/02 07:23:40;;;;;;;10.52;4.25;;;;;;;3.33;68.78;98862.63;5052127;28;20041;-69
2022/11/02 07:26:05;;;;;;;11.13;4.15;;;;;;;3.38;68.58;98870.69;5032479;28;20144;-73
2022/11/02 07:28:31;;;;;;;11.82;4.53;;;;;;;3.14;69.59;98864.25;5030701;28;20045;-71
2022/11/02 07:30:57;;;;;;;8.80;4.22;;;;;;;3.21;69.45;98869.50;5044563;28;20736;-71
2022/11/02 07:33:22;;;;;;;6.53;3.85;;;;;;;3.27;69.19;98862.66;5018185;28;20033;-68
2022/11/02 07:35:48;;;;;;;8.82;4.85;;;;;;;3.27;69.25;98860.84;5029891;28;20044;-68
2022/11/02 07:38:14;;;;;;;7.38;4.10;;;;;;;3.33;69.30;98860.00;5032396;28;20123;-66
2022/11/02 07:40:40;;;;;;;6.35;3.97;;;;;;;3.35;69.12;98875.50;5013157;28;20048;-65
2022/11/02 07:43:06;;;;;;;8.85;4.47;;;;;;;3.30;68.62;98867.47;5019546;28;20052;-67
2022/11/02 07:45:43;;;;;;;7.32;4.55;;;;;;;3.27;69.03;98868.69;5008674;28;20048;-68
2022/11/02 07:48:09;;;;;;;6.22;3.97;;;;;;;3.33;69.28;98878.34;5050359;28;20049;-67
2022/11/02 07:50:34;;;;;;;10.23;4.53;;;;;;;3.43;68.34;98870.06;5015199;28;20087;-68
2022/11/02 07:53:00;;;;;;;7.95;3.42;;;;;;;3.46;67.63;98871.47;5014788;28;20075;-69
2022/11/02 07:55:28;;;;;;;7.35;4.03;;;;;;;3.44;67.53;98876.13;5050879;28;20060;-66
2022/11/02 07:57:56;;;;;;;6.85;3.55;;;;;;;3.50;68.08;98877.91;5015995;28;20103;-67
2022/11/02 08:00:23;;;;;;;7.68;4.45;;;;;;;3.48;68.01;98869.47;5048721;28;20037;-67
2022/11/02 08:02:53;;;;;;;7.13;4.15;;;;;;;3.34;68.54;98864.25;5016009;28;20486;-67
2022/11/02 08:05:19;;;;;;;11.40;4.90;;;;;;;3.61;68.43;98874.69;5033475;28;20037;-66
2022/11/02 08:07:45;;;;;;;8.00;3.90;;;;;;;3.77;67.70;98870.84;5032571;28;20136;-69
2022/11/02 08:10:11;;;;;;;7.85;4.38;;;;;;;3.74;67.34;98868.63;4997281;28;20132;-67
2022/11/02 08:12:37;;;;;;;6.97;3.83;;;;;;;3.67;67.39;98873.84;5031579;28;20041;-67
2022/11/02 08:15:03;;;;;;;8.73;4.00;;;;;;;3.68;67.71;98872.03;5049062;28;20091;-66
2022/11/02 08:17:29;;;;;;;7.40;4.25;;;;;;;3.61;67.71;98872.06;5033648;28;20124;-68
2022/11/02 08:19:55;;;;;;;7.55;4.50;;;;;;;3.54;68.11;98866.84;5032916;28;20135;-66
2022/11/02 08:22:21;;;;;;;7.43;4.05;;;;;;;3.56;68.27;98877.09;5052188;28;20285;-66
2022/11/02 08:24:46;;;;;;;6.50;3.75;;;;;;;3.49;68.29;98882.34;5027446;28;20041;-68
2022/11/02 08:27:12;;;;;;;6.40;3.95;;;;;;;3.64;68.07;98879.50;5036984;28;20040;-68
2022/11/02 08:29:40;;;;;;;10.07;4.45;;;;;;;3.70;67.68;98875.28;5034306;28;20045;-67
2022/11/02 08:32:07;;;;;;;8.13;4.35;;;;;;;3.61;67.98;98874.69;5033486;28;20433;-65
2022/11/02 08:34:33;;;;;;;8.23;4.60;;;;;;;3.68;67.00;98879.91;5051596;28;20183;-67
2022/11/02 08:36:59;;;;;;;10.23;4.00;;;;;;;3.59;67.52;98874.09;5050521;28;20072;-66
2022/11/02 08:39:25;;;;;;;15.35;4.40;;;;;;;3.49;68.42;98874.50;5033394;28;20033;-67
2022/11/02 08:41:51;;;;;;;9.57;4.32;;;;;;;3.50;68.16;98873.50;5048025;28;20094;-66
2022/11/02 08:44:17;;;;;;;10.38;4.72;;;;;;;3.51;68.32;98869.88;5049007;28;20041;-68
2022/11/02 08:46:42;;;;;;;7.75;4.07;;;;;;;3.61;67.79;98872.06;5031402;28;20041;-66
2022/11/02 08:49:08;;;;;;;8.07;4.43;;;;;;;3.77;66.87;98874.25;5049246;28;20055;-67
2022/11/02 08:51:34;;;;;;;7.97;3.88;;;;;;;3.75;66.70;98873.66;5032616;28;20037;-67
2022/11/02 08:54:00;;;;;;;8.75;4.32;;;;;;;3.76;66.97;98871.81;5048308;28;20056;-66
2022/11/02 08:56:25;;;;;;;8.05;4.50;;;;;;;3.67;67.03;98873.84;5029040;28;20088;-67
2022/11/02 08:58:51;;;;;;;6.43;4.45;;;;;;;3.79;66.61;98880.06;5027249;28;20041;-67
2022/11/02 09:01:18;;;;;;;7.68;4.15;;;;;;;3.61;67.50;98877.31;5032508;28;20072;-67
2022/11/02 09:03:44;;;;;;;9.57;4.05;;;;;;;3.56;67.53;98882.34;5032931;28;20053;-67
2022/11/02 09:06:10;;;;;;;5.88;4.07;;;;;;;3.51;67.93;98867.25;5048281;28;20091;-67
2022/11/02 09:08:35;;;;;;;8.07;3.80;;;;;;;3.60;66.85;98879.13;5048388;28;20053;-67
2022/11/02 09:11:02;;;;;;;7.68;4.53;;;;;;;3.46;67.98;98874.91;5014755;28;20120;-68
2022/11/02 09:13:28;;;;;;;7.03;4.63;;;;;;;3.61;67.64;98872.84;5046980;28;20057;-68
2022/11/02 09:15:56;;;;;;;11.18;5.85;;;;;;;3.48;67.45;98867.66;5048061;28;20114;-67
2022/11/02 09:18:22;;;;;;;8.52;4.53;;;;;;;3.60;67.61;98873.88;5048708;28;20044;-67
2022/11/02 09:20:48;;;;;;;9.13;4.28;;;;;;;3.68;67.38;98875.50;5014905;28;20045;-68
2022/11/02 09:23:19;;;;;;;8.05;4.20;;;;;;;3.60;67.06;98870.47;5031017;28;20048;-68
2022/11/02 09:25:45;;;;;;;8.65;4.13;;;;;;;3.56;67.12;98856.97;5030615;28;20037;-67
2022/11/02 09:28:11;;;;;;;9.00;4.50;;;;;;;3.68;67.04;98865.00;5015872;28;20151;-67
2022/11/02 09:30:37;;;;;;;6.43;4.03;;;;;;;3.60;67.01;98867.84;5049708;28;20040;-67
2022/11/02 09:33:05;;;;;;;7.50;4.35;;;;;;;3.71;66.72;98863.78;5032090;28;20403;-67
2022/11/02 09:35:36;;;;;;;9.15;4.30;;;;;;;3.79;66.46;98853.84;5031759;28;20048;-69
2022/11/02 09:38:03;;;;;;;8.45;4.47;;;;;;;3.87;66.23;98865.94;5014996;28;20037;-68
2022/11/02 09:40:42;;;;;;;8.98;4.78;;;;;;;3.78;65.77;98862.75;5031557;28;20551;-65
2022/11/02 09:43:27;;;;;;;7.22;4.22;;;;;;;3.56;66.97;98864.81;5049956;28;20052;-71
2022/11/02 09:46:00;;;;;;;6.57;4.38;;;;;;;3.51;67.04;98863.81;5046960;28;20051;-67
2022/11/02 09:48:32;;;;;;;9.25;4.78;;;;;;;3.60;66.38;98858.16;5047694;28;20045;-67
2022/11/02 09:51:02;;;;;;;9.73;4.80;;;;;;;3.49;67.25;98861.41;4997420;28;20041;-73
2022/11/02 09:53:54;;;;;;;;;;;;;;;3.56;67.09;98864.00;5050162;28;20048;-65
2022/11/02 09:56:20;;;;;;;12.82;5.32;;;;;;;3.70;66.50;98864.78;5024271;28;19927;-67
2022/11/02 09:58:52;;;;;;;8.93;5.40;;;;;;;3.69;66.25;98863.97;4993991;28;20422;-70
2022/11/02 10:01:47;;;;;;;12.65;5.03;;;;;;;3.53;66.69;98873.09;5011774;28;20655;-68
2022/11/02 10:04:19;;;;;;;10.88;5.00;;;;;;;3.54;67.24;98863.41;4977419;28;20052;-69
2022/11/02 10:06:55;;;;;;;11.45;5.00;;;;;;;3.70;66.60;98865.59;5016003;28;20037;-70
2022/11/02 10:09:29;;;;;;;7.80;4.40;;;;;;;3.61;66.58;98874.69;5022395;28;20084;-72
2022/11/02 10:12:06;;;;;;;8.77;4.82;;;;;;;3.56;66.28;98867.44;5052352;28;20047;-69
2022/11/02 10:14:36;;;;;;;8.25;4.70;;;;;;;3.65;65.85;98873.28;5035663;28;20057;-71
2022/11/02 10:17:11;;;;;;;8.98;4.72;;;;;;;3.70;65.23;98862.97;5019671;28;20163;-70
2022/11/02 10:19:39;;;;;;;10.55;5.28;;;;;;;3.73;64.93;98859.94;5018985;28;20545;-70
2022/11/02 10:22:15;;;;;;;7.90;5.00;;;;;;;3.76;64.77;98867.38;5018230;28;20052;-68
2022/11/02 10:24:45;;;;;;;8.55;4.60;;;;;;;3.72;64.63;98862.78;5016770;28;20757;-67
2022/11/02 10:27:20;;;;;;;8.43;4.70;;;;;;;3.66;65.20;98861.78;5000240;28;20037;-67
2022/11/02 10:29:55;;;;;;;13.38;5.75;;;;;;;3.72;64.82;98868.81;5026842;28;20418;-68
2022/11/02 10:32:21;;;;;;;10.00;4.90;;;;;;;3.49;65.07;98865.84;5052313;28;20409;-67
2022/11/02 10:34:46;;;;;;;10.88;6.00;;;;;;;3.66;64.84;98874.88;5054357;28;20049;-70
2022/11/02 10:37:24;;;;;;;10.45;6.30;;;;;;;3.71;65.32;98875.06;5052805;28;20091;-67
2022/11/02 10:40:02;;;;;;;10.07;5.63;;;;;;;3.90;65.05;98878.66;5036023;28;20040;-68
2022/11/02 10:42:54;;;;;;;11.23;6.03;;;;;;;3.85;64.52;98878.44;5019666;28;20048;-67
2022/11/02 10:45:32;;;;;;;11.27;5.40;;;;;;;3.91;64.54;98882.06;5019591;28;20139;-68
2022/11/02 10:48:20;;;;;;;12.32;6.22;;;;;;;3.91;64.07;98884.69;5032064;28;20049;-68
2022/11/02 10:50:47;;;;;;;9.05;5.95;;;;;;;3.74;64.43;98885.16;5039978;28;20493;-67
2022/11/02 10:53:15;;;;;;;11.50;5.15;;;;;;;3.63;64.67;98886.56;5053906;28;20041;-67
2022/11/02 10:56:14;;;;;;;11.82;6.07;;;;;;;3.61;65.11;98887.78;5051500;28;20059;-67
2022/11/02 10:58:59;;;;;;;11.70;5.35;;;;;;;3.54;65.07;98887.00;5048964;28;20065;-67
2022/11/02 11:01:26;;;;;;;10.90;5.40;;;;;;;3.52;65.41;98883.78;5033082;28;20042;-69
2022/11/02 11:03:59;;;;;;;12.75;5.95;;;;;;;3.41;65.41;98875.53;5014829;28;20071;-68
2022/11/02 11:06:37;;;;;;;13.18;6.22;;;;;;;3.51;65.25;98872.47;5047826;28;20041;-67
2022/11/02 11:09:14;;;;;;;7.95;5.15;;;;;;;3.54;65.58;98892.25;5051113;28;20522;-71
2022/11/02 11:11:58;;;;;;;9.45;5.55;;;;;;;3.33;65.74;98874.94;5033742;28;20036;-66
2022/11/02 11:14:28;;;;;;;10.23;5.60;;;;;;;3.32;66.05;98881.97;5002877;28;20045;-67
2022/11/02 11:16:59;;;;;;;9.38;5.45;;;;;;;3.33;65.68;98875.72;5033356;28;20521;-66
2022/11/02 11:19:34;;;;;;;12.07;6.22;;;;;;;3.54;65.67;98887.81;5033100;28;20055;-67
2022/11/02 11:22:01;;;;;;;15.70;6.38;;;;;;;3.55;65.14;98888.59;5050670;28;20523;-69
2022/11/02 11:24:33;;;;;;;11.52;5.75;;;;;;;3.53;65.02;98894.06;5035032;28;20052;-68
2022/11/02 11:27:15;;;;;;;13.68;6.30;;;;;;;3.28;64.63;98882.59;5035080;28;20102;-69
2022/11/02 11:29:57;;;;;;;11.13;6.22;;;;;;;3.17;64.44;98903.13;5051808;28;20118;-68
2022/11/02 11:32:26;;;;;;;12.07;6.18;;;;;;;3.16;63.87;98885.81;5052315;28;20110;-67
2022/11/02 11:35:04;;;;;;;9.75;5.63;;;;;;;3.18;64.23;98888.25;5034374;28;20143;-68
2022/11/02 11:37:30;;;;;;;12.07;6.75;;;;;;;3.15;64.26;98884.22;5033817;28;20041;-68
2022/11/02 11:40:00;;;;;;;10.95;6.00;;;;;;;3.27;63.91;98891.47;5034005;28;20068;-68
2022/11/02 11:42:29;;;;;;;17.80;7.60;;;;;;;3.28;63.98;98874.72;5050774;28;20049;-67
2022/11/02 11:45:00;;;;;;;12.98;6.60;;;;;;;3.27;64.16;98873.94;5001307;28;20062;-67
2022/11/02 11:47:28;;;;;;;12.10;6.77;;;;;;;3.32;63.30;98886.41;5052412;28;20102;-68
2022/11/02 11:49:54;;;;;;;12.80;6.32;;;;;;;3.28;63.87;98886.00;5018453;28;20773;-67
2022/11/02 11:52:24;;;;;;;13.98;6.35;;;;;;;3.29;63.70;98889.44;5016297;28;20094;-68
2022/11/02 11:54:55;;;;;;;15.18;6.53;;;;;;;3.01;63.84;98898.28;5033203;28;20874;-66
2022/11/02 11:57:32;;;;;;;11.32;6.05;;;;;;;2.89;63.24;98892.84;5033896;28;20395;-70
2022/11/02 12:00:03;;;;;;;9.95;5.57;;;;;;;2.90;63.18;98893.66;5050447;28;20454;-69
2022/11/02 12:02:36;;;;;;;9.23;5.70;;;;;;;2.77;63.38;98891.03;5050730;28;20052;-70